createdAt,value
2018-07-30T00:03:22.598Z,61.14
2018-07-30T00:08:17.048Z,61.35
2018-07-30T00:13:11.569Z,61.71
2018-07-30T00:18:06.389Z,62.48
2018-07-30T00:23:00.857Z,62.75
2018-07-30T00:27:55.357Z,62.64
2018-07-30T00:32:49.852Z,62.39
2018-07-30T00:37:44.325Z,63.64
2018-07-30T00:42:38.760Z,64.09
2018-07-30T00:47:33.205Z,64.40
2018-07-30T00:52:27.625Z,65.61
2018-07-30T00:57:22.065Z,65.43
2018-07-30T01:02:16.553Z,65.67
2018-07-30T01:07:11.058Z,65.89
2018-07-30T01:12:05.519Z,66.20
2018-07-30T01:17:00.010Z,65.55
2018-07-30T01:21:54.219Z,66.09
2018-07-30T01:26:48.673Z,65.83
2018-07-30T01:31:43.146Z,65.39
2018-07-30T01:36:37.608Z,66.36
2018-07-30T01:41:32.100Z,66.40
2018-07-30T01:46:26.583Z,65.89
2018-07-30T01:51:21.035Z,66.24
2018-07-30T01:56:15.449Z,66.26
2018-07-30T02:01:09.918Z,66.24
2018-07-30T02:06:04.408Z,67.24
2018-07-30T02:10:58.973Z,66.65
2018-07-30T02:15:53.440Z,67.03
2018-07-30T02:20:47.883Z,67.25
2018-07-30T02:25:42.368Z,68.75
2018-07-30T02:30:36.796Z,69.62
2018-07-30T02:35:31.262Z,69.59
2018-07-30T02:40:25.391Z,68.89
2018-07-30T02:45:19.864Z,69.41
2018-07-30T02:50:14.347Z,69.47
2018-07-30T02:55:08.810Z,69.63
2018-07-30T03:00:03.281Z,70.33
2018-07-30T03:04:57.730Z,70.56
2018-07-30T03:09:52.261Z,70.67
2018-07-30T03:14:46.720Z,70.83
2018-07-30T03:19:41.202Z,70.70
2018-07-30T03:24:35.679Z,71.43
2018-07-30T03:29:30.137Z,70.90
2018-07-30T03:34:24.602Z,71.13
2018-07-30T03:39:19.058Z,71.77
2018-07-30T03:44:13.586Z,72.16
2018-07-30T03:49:08.029Z,71.93
2018-07-30T03:54:02.482Z,71.98
2018-07-30T03:58:56.960Z,71.96
2018-07-30T04:03:51.501Z,72.30
2018-07-30T04:08:45.984Z,72.27
2018-07-30T04:13:40.435Z,71.97
2018-07-30T04:18:34.883Z,71.03
2018-07-30T04:23:29.353Z,70.03
2018-07-30T04:28:23.797Z,68.40
2018-07-30T04:33:18.245Z,64.98
2018-07-30T04:38:12.699Z,60.15
2018-07-30T04:43:07.126Z,56.76
2018-07-30T04:48:01.556Z,52.77
2018-07-30T04:52:56.170Z,50.09
2018-07-30T04:57:51.438Z,49.24
2018-07-30T05:02:45.897Z,46.84
2018-07-30T05:07:40.356Z,45.53
2018-07-30T05:12:34.817Z,44.46
2018-07-30T05:17:29.299Z,41.82
2018-07-30T05:22:23.833Z,40.16
2018-07-30T05:27:18.000Z,39.51
2018-07-30T05:32:12.565Z,37.35
2018-07-30T05:37:07.150Z,36.09
2018-07-30T05:42:01.663Z,34.77
2018-07-30T05:46:56.194Z,34.83
2018-07-30T05:51:50.876Z,35.46
2018-07-30T05:56:45.482Z,33.80
2018-07-30T06:01:40.093Z,35.74
2018-07-30T06:06:34.612Z,36.21
2018-07-30T06:11:29.229Z,36.02
2018-07-30T06:16:23.772Z,34.63
2018-07-30T06:21:18.401Z,34.00
2018-07-30T06:26:13.144Z,33.17
2018-07-30T06:31:19.258Z,34.38
2018-07-30T06:36:14.667Z,34.76
2018-07-30T06:41:08.894Z,36.10
2018-07-30T06:46:03.399Z,35.90
2018-07-30T06:50:58.005Z,35.91
2018-07-30T06:55:52.748Z,37.56
2018-07-30T07:00:47.516Z,39.25
2018-07-30T07:05:42.117Z,39.69
2018-07-30T07:10:36.697Z,39.53
2018-07-30T07:15:31.339Z,38.74
2018-07-30T07:20:25.908Z,40.27
2018-07-30T07:25:20.596Z,40.40
2018-07-30T07:30:15.746Z,40.28
2018-07-30T07:35:10.446Z,39.08
2018-07-30T07:45:09.276Z,38.34
2018-07-30T07:50:03.975Z,38.63
2018-07-30T07:55:00.183Z,39.59
2018-07-30T07:59:54.765Z,40.80
2018-07-30T08:04:49.223Z,41.71
2018-07-30T08:14:46.700Z,43.46
2018-07-30T08:19:40.216Z,42.44
2018-07-30T08:24:38.705Z,41.98
2018-07-30T08:29:32.377Z,42.09
2018-07-30T08:34:25.526Z,41.05
2018-07-30T08:39:18.706Z,40.60
2018-07-30T08:44:11.839Z,40.58
2018-07-30T08:49:05.536Z,38.70
2018-07-30T08:53:58.670Z,39.75
2018-07-30T08:58:56.056Z,38.65
2018-07-30T09:04:01.027Z,39.28
2018-07-30T09:08:54.948Z,37.49
2018-07-30T09:13:48.383Z,38.10
2018-07-30T09:18:41.967Z,37.33
2018-07-30T09:23:35.112Z,37.32
2018-07-30T09:28:28.220Z,36.30
2018-07-30T09:33:22.041Z,36.21
2018-07-30T09:38:19.307Z,37.37
2018-07-30T09:43:26.714Z,37.74
2018-07-30T09:48:19.950Z,37.54
2018-07-30T09:53:12.978Z,38.18
2018-07-30T09:58:05.981Z,38.46
2018-07-30T10:02:58.999Z,38.27
2018-07-30T10:07:52.248Z,38.43
2018-07-30T10:12:45.298Z,37.23
2018-07-30T10:17:38.550Z,36.57
2018-07-30T10:22:31.565Z,36.02
2018-07-30T10:27:24.698Z,36.59
2018-07-30T10:32:17.769Z,36.48
2018-07-30T10:37:10.928Z,35.03
2018-07-30T10:42:05.435Z,34.33
2018-07-30T10:46:58.558Z,35.81
2018-07-30T10:51:51.692Z,33.04
2018-07-30T10:56:44.706Z,31.79
2018-07-30T11:01:39.137Z,30.36
2018-07-30T11:06:32.260Z,28.59
2018-07-30T11:11:25.413Z,27.40
2018-07-30T11:16:18.792Z,28.09
2018-07-30T11:21:11.891Z,25.40
2018-07-30T11:26:05.095Z,25.48
2018-07-30T11:30:58.238Z,23.09
2018-07-30T11:35:51.337Z,25.22
2018-07-30T11:40:44.339Z,24.91
2018-07-30T11:45:37.630Z,27.67
2018-07-30T11:50:30.692Z,26.88
2018-07-30T11:55:23.874Z,27.41
2018-07-30T12:00:16.933Z,28.49
2018-07-30T12:05:10.486Z,28.45
2018-07-30T12:10:03.993Z,27.83
2018-07-30T12:14:57.563Z,26.47
2018-07-30T12:19:50.900Z,24.96
2018-07-30T12:24:44.070Z,26.50
2018-07-30T12:29:37.189Z,25.78
2018-07-30T12:34:32.090Z,28.02
2018-07-30T12:39:25.263Z,28.58
2018-07-30T12:44:18.484Z,26.36
2018-07-30T12:49:11.680Z,27.85
2018-07-30T12:54:04.718Z,27.13
2018-07-30T12:58:58.236Z,25.59
2018-07-30T13:03:52.682Z,24.04
2018-07-30T13:08:45.780Z,23.97
2018-07-30T13:13:38.891Z,24.25
2018-07-30T13:18:51.191Z,25.77
2018-07-30T13:23:44.310Z,25.80
2018-07-30T13:28:37.427Z,26.65
2018-07-30T13:33:30.569Z,25.94
2018-07-30T13:38:23.665Z,25.92
2018-07-30T13:43:16.686Z,23.31
2018-07-30T13:48:16.926Z,26.91
2018-07-30T13:53:10.116Z,22.70
2018-07-30T13:58:05.738Z,25.38
2018-07-30T14:03:00.913Z,25.99
2018-07-30T14:07:54.321Z,25.15
2018-07-30T14:12:47.736Z,24.49
2018-07-30T14:17:43.180Z,22.33
2018-07-30T14:22:36.456Z,21.42
2018-07-30T14:27:29.489Z,23.52
2018-07-30T14:32:22.766Z,23.28
2018-07-30T14:37:15.904Z,20.75
2018-07-30T14:42:10.238Z,23.30
2018-07-30T14:47:03.334Z,23.31
2018-07-30T14:51:56.469Z,22.47
2018-07-30T14:56:51.083Z,21.83
2018-07-30T15:01:44.131Z,22.37
2018-07-30T15:06:37.083Z,22.38
2018-07-30T15:11:30.100Z,22.10
2018-07-30T15:16:23.520Z,22.49
2018-07-30T15:21:16.477Z,21.85
2018-07-30T15:26:09.577Z,21.76
2018-07-30T15:31:02.720Z,22.01
2018-07-30T15:35:55.771Z,22.24
2018-07-30T15:40:48.931Z,22.21
2018-07-30T15:45:41.999Z,22.36
2018-07-30T15:50:35.005Z,21.86
2018-07-30T15:55:28.037Z,22.27
2018-07-30T16:00:21.105Z,21.92
2018-07-30T16:05:15.757Z,22.66
2018-07-30T16:10:08.796Z,22.09
2018-07-30T16:15:01.956Z,22.04
2018-07-30T16:19:55.028Z,22.98
2018-07-30T16:24:48.162Z,22.86
2018-07-30T16:29:41.122Z,22.58
2018-07-30T16:34:34.201Z,22.43
2018-07-30T16:39:27.316Z,22.56
2018-07-30T16:44:20.390Z,22.02
2018-07-30T16:49:13.424Z,22.43
2018-07-30T16:54:06.463Z,22.50
2018-07-30T16:58:59.544Z,23.34
2018-07-30T17:03:52.570Z,23.05
2018-07-30T17:08:45.608Z,22.68
2018-07-30T17:13:38.657Z,22.88
2018-07-30T17:18:31.607Z,22.96
2018-07-30T17:23:24.635Z,24.23
2018-07-30T17:28:17.706Z,23.20
2018-07-30T17:33:10.720Z,24.01
2018-07-30T17:38:03.877Z,23.92
2018-07-30T17:42:56.915Z,24.14
2018-07-30T17:47:49.912Z,23.62
2018-07-30T17:52:42.999Z,23.82
2018-07-30T17:57:36.037Z,24.97
2018-07-30T18:02:29.046Z,24.62
2018-07-30T18:07:22.041Z,25.21
2018-07-30T18:12:15.135Z,24.93
2018-07-30T18:17:08.168Z,25.47
2018-07-30T18:22:01.153Z,25.58
2018-07-30T18:26:54.172Z,25.61
2018-07-30T18:31:47.599Z,27.13
2018-07-30T18:36:40.597Z,26.52
2018-07-30T18:41:33.662Z,27.33
2018-07-30T18:46:26.700Z,27.64
2018-07-30T18:51:19.691Z,28.41
2018-07-30T18:56:12.720Z,28.84
2018-07-30T19:01:05.824Z,30.12
2018-07-30T19:05:58.836Z,30.45
2018-07-30T19:10:51.869Z,30.40
2018-07-30T19:15:44.949Z,31.83
2018-07-30T19:20:38.000Z,32.92
2018-07-30T19:25:31.048Z,34.54
2018-07-30T19:30:24.084Z,34.34
2018-07-30T19:35:17.176Z,35.10
2018-07-30T19:40:10.246Z,35.89
2018-07-30T19:45:03.787Z,36.10
2018-07-30T19:49:56.783Z,37.19
2018-07-30T19:54:50.142Z,36.50
2018-07-30T19:59:43.160Z,37.09
2018-07-30T20:04:36.236Z,37.67
2018-07-30T20:09:29.264Z,37.95
2018-07-30T20:14:22.272Z,37.95
2018-07-30T20:19:15.217Z,39.47
2018-07-30T20:24:08.260Z,38.61
2018-07-30T20:29:01.299Z,39.44
2018-07-30T20:33:56.281Z,40.92
2018-07-30T20:38:49.308Z,41.54
2018-07-30T20:43:42.297Z,42.67
2018-07-30T20:48:35.350Z,44.16
2018-07-30T20:53:28.376Z,44.68
2018-07-30T20:58:21.421Z,44.24
2018-07-30T21:03:14.461Z,43.82
2018-07-30T21:08:07.578Z,44.79
2018-07-30T21:13:00.644Z,44.31
2018-07-30T21:17:53.664Z,44.37
2018-07-30T21:22:46.684Z,45.75
2018-07-30T21:27:39.699Z,45.22
2018-07-30T21:32:32.716Z,45.91
2018-07-30T21:37:25.833Z,45.68
2018-07-30T21:42:18.892Z,46.46
2018-07-30T21:47:11.949Z,47.33
2018-07-30T21:52:05.128Z,47.67
2018-07-30T21:56:58.137Z,47.57
2018-07-30T22:01:51.260Z,48.34
2018-07-30T22:06:44.284Z,48.92
2018-07-30T22:11:37.411Z,49.12
2018-07-30T22:16:30.425Z,48.67
2018-07-30T22:21:23.447Z,49.19
2018-07-30T22:26:16.455Z,49.18
2018-07-30T22:31:09.487Z,50.31
2018-07-30T22:36:02.476Z,50.53
2018-07-30T22:40:55.477Z,50.63
2018-07-30T22:45:48.547Z,50.44
2018-07-30T22:50:41.662Z,51.41
2018-07-30T22:55:34.665Z,51.03
2018-07-30T23:00:27.697Z,52.07
2018-07-30T23:05:20.780Z,52.50
2018-07-30T23:10:13.764Z,52.18
2018-07-30T23:15:06.836Z,52.39
2018-07-30T23:19:59.904Z,53.24
2018-07-30T23:24:52.997Z,53.44
2018-07-30T23:29:45.996Z,53.19
2018-07-30T23:34:38.979Z,54.10
2018-07-30T23:39:31.974Z,53.99
2018-07-30T23:44:25.035Z,55.01
2018-07-30T23:49:18.028Z,55.07
2018-07-30T23:54:11.099Z,55.16
2018-07-30T23:59:04.262Z,55.50
